Time;durP1;ratioP1;P1;durP2;ratioP2;P2;SDS_P1;SDS_P2;PMS_P1;PMS_P2;Temp;Humidity;BMP_temperature;BMP_pressure;BME280_temperature;BME280_humidity;BME280_pressure;Samples;Min_cycle;Max_cycle;Signal;HPM_P1;HPM_P2
2022/06/12 00:02:19;;;;;;;10.90;5.10;;;;;;;13.02;70.42;98457.39;107853;1291;23131;-87
2022/06/12 00:04:47;;;;;;;7.60;5.20;;;;;;;13.01;70.57;98456.23;108210;1287;22226;-86
2022/06/12 00:07:17;;;;;;;8.40;5.10;;;;;;;12.94;70.94;98458.19;108523;1286;23038;-86
2022/06/12 00:09:45;;;;;;;6.60;4.80;;;;;;;12.88;71.28;98460.64;108261;1287;22311;-86
2022/06/12 00:12:13;;;;;;;6.20;4.50;;;;;;;12.87;71.58;98457.85;108543;1286;22296;-87
2022/06/12 00:14:40;;;;;;;10.00;8.70;;;;;;;12.90;71.32;98453.79;108516;1286;22221;-86
2022/06/12 00:17:09;;;;;;;7.10;6.00;;;;;;;12.92;71.52;98456.94;108516;1285;22367;-88
2022/06/12 00:19:37;;;;;;;7.70;5.10;;;;;;;12.89;71.96;98454.93;108551;1286;23008;-87
2022/06/12 00:22:05;;;;;;;5.90;4.60;;;;;;;12.88;72.69;98456.41;108520;1286;22302;-86
2022/06/12 00:24:33;;;;;;;6.00;4.20;;;;;;;12.88;72.94;98458.41;108512;1286;23094;-89
2022/06/12 00:27:03;;;;;;;6.40;3.70;;;;;;;12.89;73.02;98456.19;108530;1287;22345;-87
2022/06/12 00:29:34;;;;;;;6.80;4.40;;;;;;;12.88;73.58;98454.68;108259;1287;22366;-87
2022/06/12 00:32:42;;;;;;;6.70;4.70;;;;;;;12.87;74.03;98451.89;108531;1287;23118;-87
2022/06/12 00:36:31;;;;;;;6.20;4.40;;;;;;;12.84;74.16;98455.68;107374;1295;22281;-87
2022/06/12 00:40:19;;;;;;;5.10;4.00;;;;;;;12.83;73.93;98450.09;107376;1296;23104;-88
2022/06/12 00:44:08;;;;;;;5.60;4.10;;;;;;;12.86;73.84;98452.02;107073;1301;22378;-87
2022/06/12 00:47:57;;;;;;;5.70;4.30;;;;;;;12.82;74.87;98455.77;107050;1302;22270;-87
2022/06/12 00:51:52;;;;;;;5.30;3.80;;;;;;;12.82;75.58;98450.27;107068;1301;22272;-86
2022/06/12 00:55:12;;;;;;;6.60;3.50;;;;;;;12.80;76.38;98445.39;106711;1305;22422;-87
2022/06/12 00:57:40;;;;;;;7.40;3.90;;;;;;;12.80;76.67;98444.78;106703;1304;22355;-85
2022/06/12 01:00:13;;;;;;;4.90;4.00;;;;;;;12.79;76.56;98442.63;106723;1305;23262;-87
2022/06/12 01:02:41;;;;;;;4.40;3.50;;;;;;;12.75;76.83;98443.30;106720;1305;22366;-87
2022/06/12 01:08:02;;;;;;;6.50;4.50;;;;;;;12.66;77.23;98432.72;106718;1305;22343;-87
2022/06/12 01:10:31;;;;;;;8.40;4.00;;;;;;;12.69;77.67;98433.89;106723;1306;22300;-87
2022/06/12 01:13:09;;;;;;;5.10;3.60;;;;;;;12.70;77.63;98432.41;107127;1297;22422;-86
2022/06/12 01:15:43;;;;;;;4.70;3.80;;;;;;;12.75;77.69;98426.75;107277;1297;22369;-85
2022/06/12 01:18:15;;;;;;;4.80;3.70;;;;;;;12.81;77.55;98421.82;107268;1297;23121;-84
2022/06/12 01:21:04;;;;;;;4.80;3.60;;;;;;;12.80;76.98;98414.82;107392;1294;22441;-86
2022/06/12 01:23:56;;;;;;;5.30;3.90;;;;;;;12.81;77.02;98418.14;107488;1294;22369;-87
2022/06/12 01:26:43;;;;;;;5.40;4.30;;;;;;;12.77;76.44;98417.14;107489;1294;23179;-87
2022/06/12 01:29:20;;;;;;;6.20;4.30;;;;;;;12.75;76.34;98415.46;107530;1294;23100;-88
2022/06/12 01:32:01;;;;;;;5.70;4.70;;;;;;;12.73;76.01;98418.30;108026;1287;22440;-88
2022/06/12 01:34:34;;;;;;;5.10;4.10;;;;;;;12.70;76.13;98419.12;108475;1286;22363;-88
2022/06/12 01:37:21;;;;;;;5.20;3.90;;;;;;;12.69;76.56;98416.59;108482;1287;23111;-88
2022/06/12 01:40:08;;;;;;;6.40;3.90;;;;;;;12.68;77.42;98416.84;108465;1287;22401;-87
2022/06/12 01:43:12;;;;;;;6.10;4.00;;;;;;;12.66;77.95;98417.93;108166;1287;22381;-87
2022/06/12 01:45:56;;;;;;;6.70;3.60;;;;;;;12.65;77.86;98418.78;108340;1287;23302;-88
2022/06/12 01:48:46;;;;;;;5.90;4.80;;;;;;;12.62;78.28;98421.55;108497;1287;23364;-88
2022/06/12 01:51:29;;;;;;;5.60;4.00;;;;;;;12.56;78.45;98420.25;108486;1286;23132;-87
2022/06/12 01:54:06;;;;;;;6.50;4.70;;;;;;;12.51;78.57;98419.96;108456;1287;22459;-86
2022/06/12 01:56:42;;;;;;;7.90;5.10;;;;;;;12.46;78.68;98415.23;108485;1287;22426;-86
2022/06/12 01:59:42;;;;;;;6.70;3.90;;;;;;;12.42;78.87;98413.30;108493;1286;22315;-86
2022/06/12 02:02:10;;;;;;;6.80;4.20;;;;;;;12.44;78.92;98409.27;107494;1287;22405;-86
2022/06/12 02:05:02;;;;;;;7.10;3.70;;;;;;;12.49;79.14;98408.27;108494;1287;22351;-87
2022/06/12 02:07:37;;;;;;;5.80;3.80;;;;;;;12.49;79.25;98401.50;108495;1287;22260;-87
2022/06/12 02:10:40;;;;;;;5.60;3.50;;;;;;;12.42;79.28;98401.25;108480;1287;23132;-86
2022/06/12 02:13:34;;;;;;;6.60;4.20;;;;;;;12.34;78.37;98399.89;107856;1287;22694;-86
2022/06/12 02:16:13;;;;;;;6.20;5.00;;;;;;;12.33;78.15;98400.23;108484;1286;23135;-85
2022/06/12 02:18:50;;;;;;;6.40;4.60;;;;;;;12.27;77.54;98402.86;108502;1287;22323;-90
2022/06/12 02:21:37;;;;;;;6.80;5.30;;;;;;;12.18;77.76;98404.80;108203;1287;22320;-88
2022/06/12 02:24:40;;;;;;;8.30;4.60;;;;;;;12.11;78.24;98404.77;107979;1287;22285;-88
2022/06/12 02:27:18;;;;;;;10.70;5.70;;;;;;;12.02;78.19;98408.42;107451;1294;22501;-86
2022/06/12 02:30:08;;;;;;;9.40;4.80;;;;;;;12.03;78.40;98412.63;107459;1293;23119;-88
2022/06/12 02:32:43;;;;;;;5.60;4.40;;;;;;;12.05;78.50;98413.83;107458;1294;22342;-87
2022/06/12 02:35:20;;;;;;;6.40;5.00;;;;;;;12.09;78.29;98412.48;107459;1294;22270;-86
2022/06/12 02:37:53;;;;;;;7.20;5.10;;;;;;;12.07;78.52;98411.64;107443;1294;22410;-89
2022/06/12 02:40:26;;;;;;;7.10;5.20;;;;;;;12.02;79.44;98409.94;107461;1294;22492;-88
2022/06/12 02:42:57;;;;;;;7.40;4.40;;;;;;;11.98;79.54;98412.71;107462;1294;22377;-89
2022/06/12 02:45:33;;;;;;;6.00;4.60;;;;;;;12.00;79.64;98413.31;107439;1294;22344;-86
2022/06/12 02:48:02;;;;;;;7.00;4.90;;;;;;;12.03;80.27;98414.80;107461;1294;23033;-88
2022/06/12 02:50:54;;;;;;;7.30;4.60;;;;;;;12.04;80.43;98415.46;107463;1294;22413;-88
2022/06/12 02:53:32;;;;;;;5.50;4.30;;;;;;;12.10;80.79;98418.61;107353;1294;22446;-88
2022/06/12 02:56:14;;;;;;;5.90;4.20;;;;;;;12.17;81.10;98416.38;107452;1293;23209;-85
2022/06/12 02:58:53;;;;;;;6.70;4.20;;;;;;;12.19;81.14;98418.77;107466;1294;22439;-88
2022/06/12 03:01:31;;;;;;;6.60;4.30;;;;;;;12.26;81.15;98417.04;107462;1293;22448;-89
2022/06/12 03:04:17;;;;;;;6.40;4.10;;;;;;;12.31;80.87;98418.70;108308;1287;23099;-88
2022/06/12 03:06:45;;;;;;;8.50;5.20;;;;;;;12.35;81.33;98418.24;108492;1287;22253;-87
2022/06/12 03:09:13;;;;;;;12.70;4.90;;;;;;;12.39;81.09;98415.33;108308;1287;22394;-88
2022/06/12 03:11:44;;;;;;;6.00;4.20;;;;;;;12.36;80.95;98419.00;108472;1287;22450;-87
2022/06/12 03:14:18;;;;;;;7.00;5.10;;;;;;;12.34;81.16;98420.30;108476;1287;23200;-88
2022/06/12 03:16:47;;;;;;;6.00;5.00;;;;;;;12.33;81.47;98419.35;108309;1287;22347;-87
2022/06/12 03:19:23;;;;;;;5.90;4.40;;;;;;;12.35;81.58;98420.95;108285;1287;22340;-87
2022/06/12 03:22:05;;;;;;;7.30;4.30;;;;;;;12.35;81.54;98417.64;108481;1286;22389;-87
2022/06/12 03:25:04;;;;;;;7.60;4.40;;;;;;;12.32;81.28;98418.39;108476;1287;23056;-88
2022/06/12 03:27:43;;;;;;;7.20;5.00;;;;;;;12.26;81.02;98421.86;108485;1287;22348;-87
2022/06/12 03:30:23;;;;;;;7.00;5.30;;;;;;;12.22;80.67;98421.48;108483;1286;22368;-87
2022/06/12 03:33:07;;;;;;;7.60;4.30;;;;;;;12.20;80.62;98423.74;108355;1286;23186;-87
2022/06/12 03:35:58;;;;;;;7.50;4.30;;;;;;;12.18;80.64;98422.19;108484;1286;22301;-87
2022/06/12 03:38:46;;;;;;;6.80;4.30;;;;;;;12.15;80.72;98419.89;108281;1287;22974;-87
2022/06/12 03:41:34;;;;;;;6.40;4.40;;;;;;;12.17;80.89;98421.36;108494;1287;22471;-87
2022/06/12 03:44:21;;;;;;;5.40;4.90;;;;;;;12.24;81.03;98428.10;108452;1287;22244;-88
2022/06/12 03:47:09;;;;;;;6.20;4.40;;;;;;;12.31;80.94;98434.68;108442;1285;23011;-87
2022/06/12 03:49:59;;;;;;;6.90;4.30;;;;;;;12.39;80.85;98434.55;108488;1287;22415;-88
2022/06/12 03:52:37;;;;;;;7.00;4.10;;;;;;;12.50;81.00;98435.86;108471;1287;22312;-88
2022/06/12 03:55:12;;;;;;;7.90;5.60;;;;;;;12.62;81.02;98442.23;108479;1287;22934;-89
2022/06/12 03:57:51;;;;;;;10.40;6.10;;;;;;;12.69;80.94;98441.79;108452;1286;22424;-87
2022/06/12 04:00:34;;;;;;;8.80;6.80;;;;;;;12.79;81.47;98442.41;108460;1286;22399;-88
2022/06/12 04:03:19;;;;;;;10.40;6.90;;;;;;;12.90;81.53;98443.13;108441;1286;22354;-88
2022/06/12 04:05:56;;;;;;;9.50;6.50;;;;;;;13.04;81.32;98450.03;108443;1286;22445;-87
2022/06/12 04:08:40;;;;;;;10.90;7.00;;;;;;;13.18;81.33;98452.45;108465;1287;22387;-87
2022/06/12 04:11:13;;;;;;;14.00;8.70;;;;;;;13.33;81.30;98454.13;108452;1287;22501;-87
2022/06/12 04:13:41;;;;;;;12.50;7.70;;;;;;;13.48;81.56;98453.55;108449;1286;22590;-86
2022/06/12 04:16:21;;;;;;;11.50;8.40;;;;;;;13.61;81.47;98452.84;108468;1287;22401;-88
2022/06/12 04:18:50;;;;;;;11.40;9.10;;;;;;;13.73;81.35;98453.34;108389;1286;22422;-88
2022/06/12 04:21:44;;;;;;;14.70;11.90;;;;;;;13.85;81.37;98448.79;108457;1287;22718;-86
2022/06/12 04:24:14;;;;;;;27.60;17.20;;;;;;;13.98;81.03;98447.26;108356;1286;22463;-86
2022/06/12 04:26:49;;;;;;;22.10;19.80;;;;;;;14.09;81.07;98451.73;108450;1287;22465;-86
2022/06/12 04:29:32;;;;;;;24.40;22.20;;;;;;;14.15;81.12;98454.41;108446;1286;22440;-86
2022/06/12 04:32:03;;;;;;;22.70;20.40;;;;;;;14.13;81.12;98455.91;108188;1287;22397;-85
2022/06/12 04:34:41;;;;;;;21.60;19.70;;;;;;;14.20;81.01;98452.92;108384;1287;22519;-86
2022/06/12 04:37:21;;;;;;;21.00;19.00;;;;;;;14.28;81.11;98452.13;108442;1286;22332;-87
2022/06/12 04:39:51;;;;;;;21.20;18.80;;;;;;;14.37;81.05;98453.76;108451;1287;22412;-86
2022/06/12 04:42:22;;;;;;;21.30;19.20;;;;;;;14.46;81.09;98452.64;108453;1286;22362;-86
2022/06/12 04:44:51;;;;;;;20.80;18.50;;;;;;;14.59;81.09;98453.66;108453;1287;22366;-86
2022/06/12 04:47:24;;;;;;;20.80;17.90;;;;;;;14.73;81.07;98452.90;108452;1286;23158;-87
2022/06/12 04:49:54;;;;;;;20.10;17.40;;;;;;;14.87;80.68;98452.20;108487;1286;22356;-86
2022/06/12 04:52:25;;;;;;;18.80;17.10;;;;;;;15.03;80.88;98448.83;108169;1287;22459;-87
2022/06/12 04:54:53;;;;;;;20.10;18.00;;;;;;;15.15;80.56;98448.81;108451;1287;23144;-86
2022/06/12 04:57:24;;;;;;;21.20;18.60;;;;;;;15.24;80.52;98452.02;108451;1286;22300;-87
2022/06/12 04:59:52;;;;;;;20.30;17.90;;;;;;;15.30;80.28;98454.95;108381;1287;22428;-87
2022/06/12 05:02:21;;;;;;;20.10;18.00;;;;;;;15.38;80.22;98458.09;108477;1286;22270;-86
2022/06/12 05:04:50;;;;;;;21.30;19.30;;;;;;;15.47;80.15;98458.45;108464;1286;22311;-87
2022/06/12 05:07:18;;;;;;;20.90;18.90;;;;;;;15.54;80.06;98457.20;108463;1287;22292;-89
2022/06/12 05:09:47;;;;;;;21.80;19.70;;;;;;;15.60;80.01;98459.36;108391;1287;22437;-89
2022/06/12 05:12:15;;;;;;;23.70;21.30;;;;;;;15.66;79.97;98458.02;108463;1287;22358;-85
2022/06/12 05:14:43;;;;;;;20.40;18.50;;;;;;;15.69;79.79;98461.05;108406;1287;22465;-88
2022/06/12 05:17:22;;;;;;;19.10;17.20;;;;;;;15.77;79.79;98461.80;108443;1287;23148;-88
2022/06/12 05:19:51;;;;;;;18.60;16.80;;;;;;;15.87;79.83;98464.03;108163;1287;22339;-88
2022/06/12 05:22:22;;;;;;;20.30;18.40;;;;;;;15.99;79.79;98464.27;108384;1287;22407;-89
2022/06/12 05:24:50;;;;;;;18.80;16.80;;;;;;;16.09;79.62;98463.48;108399;1287;22287;-87
2022/06/12 05:27:23;;;;;;;20.30;18.10;;;;;;;16.19;79.65;98466.01;108453;1287;22308;-88
2022/06/12 05:29:52;;;;;;;18.20;15.50;;;;;;;16.28;79.57;98471.30;108466;1286;22921;-88
2022/06/12 05:32:22;;;;;;;17.90;15.40;;;;;;;16.39;79.40;98470.90;108479;1286;22382;-86
2022/06/12 05:34:50;;;;;;;20.10;15.10;;;;;;;16.52;79.21;98473.48;108323;1287;22953;-88
2022/06/12 05:37:19;;;;;;;17.90;14.20;;;;;;;16.59;79.11;98473.39;108332;1287;22263;-88
2022/06/12 05:39:47;;;;;;;21.20;15.50;;;;;;;16.65;79.02;98472.42;108486;1286;23032;-86
2022/06/12 05:42:16;;;;;;;15.00;13.10;;;;;;;16.77;78.91;98473.94;108467;1286;22388;-87
2022/06/12 05:44:44;;;;;;;16.10;13.60;;;;;;;16.87;78.81;98477.45;108433;1287;22177;-86
2022/06/12 05:47:12;;;;;;;17.10;14.90;;;;;;;16.94;78.31;98474.17;108382;1287;22419;-87
2022/06/12 05:49:40;;;;;;;19.00;14.10;;;;;;;17.00;78.30;98474.17;108467;1286;22342;-86
2022/06/12 05:52:08;;;;;;;15.60;12.30;;;;;;;17.13;78.29;98473.45;108454;1286;23115;-87
2022/06/12 05:54:36;;;;;;;16.80;12.80;;;;;;;17.24;78.21;98472.75;108383;1287;22333;-86
2022/06/12 05:57:05;;;;;;;17.40;12.80;;;;;;;17.34;78.18;98474.21;108486;1287;23127;-86
2022/06/12 05:59:33;;;;;;;15.20;12.30;;;;;;;17.47;77.99;98474.98;108160;1287;22576;-87
2022/06/12 06:02:01;;;;;;;16.50;11.80;;;;;;;17.56;77.85;98480.52;108459;1286;23134;-87
2022/06/12 06:04:29;;;;;;;14.40;12.70;;;;;;;17.63;77.76;98482.74;108455;1287;22356;-85
2022/06/12 06:07:00;;;;;;;13.60;10.70;;;;;;;17.77;77.00;98484.70;108466;1287;22430;-86
2022/06/12 06:09:28;;;;;;;15.10;11.60;;;;;;;17.86;77.15;98485.52;108453;1286;22340;-86
2022/06/12 06:11:56;;;;;;;17.40;11.40;;;;;;;17.89;76.83;98482.44;108454;1286;22979;-86
2022/06/12 06:14:24;;;;;;;16.30;11.70;;;;;;;17.91;76.80;98483.62;108449;1286;22657;-86
2022/06/12 06:16:52;;;;;;;15.50;10.60;;;;;;;17.92;76.65;98485.02;108456;1287;22379;-86
2022/06/12 06:19:21;;;;;;;13.80;11.20;;;;;;;17.95;76.54;98481.88;108129;1287;22313;-85
2022/06/12 06:21:49;;;;;;;14.60;11.80;;;;;;;18.00;76.46;98479.02;108346;1287;22440;-85
2022/06/12 06:24:18;;;;;;;12.60;10.00;;;;;;;18.11;76.73;98476.94;108451;1287;22372;-85
2022/06/12 06:26:46;;;;;;;13.40;10.50;;;;;;;18.35;76.44;98476.23;108305;1287;22418;-85
2022/06/12 06:29:14;;;;;;;15.50;10.80;;;;;;;18.55;75.99;98475.05;108459;1287;23153;-85
2022/06/12 06:31:42;;;;;;;15.50;10.50;;;;;;;18.72;75.84;98476.26;108333;1287;22479;-85
2022/06/12 06:34:10;;;;;;;13.20;9.00;;;;;;;18.89;75.52;98474.75;108358;1287;22191;-86
2022/06/12 06:36:38;;;;;;;13.00;10.10;;;;;;;19.01;75.10;98476.27;108456;1287;22396;-85
2022/06/12 06:39:06;;;;;;;12.10;10.00;;;;;;;19.08;74.71;98472.55;108341;1287;23091;-85
2022/06/12 06:41:34;;;;;;;13.40;9.00;;;;;;;19.14;74.38;98471.35;108458;1287;22408;-86
2022/06/12 06:46:49;;;;;;;11.70;9.30;;;;;;;19.53;74.25;98467.89;108476;1287;22444;-85
2022/06/12 06:49:20;;;;;;;13.10;9.00;;;;;;;19.68;74.11;98466.67;108469;1286;23806;-85
2022/06/12 06:51:49;;;;;;;11.40;9.30;;;;;;;19.85;73.55;98470.49;108426;1287;23121;-85
2022/06/12 06:54:18;;;;;;;9.90;8.10;;;;;;;19.92;73.06;98465.71;108321;1287;22362;-85
2022/06/12 06:56:47;;;;;;;11.80;7.80;;;;;;;20.06;72.81;98463.84;108450;1287;22377;-86
2022/06/12 06:59:16;;;;;;;11.10;8.00;;;;;;;20.15;71.09;98467.77;108441;1287;22355;-85
2022/06/12 07:01:44;;;;;;;10.80;8.20;;;;;;;20.21;69.92;98469.73;108430;1287;22410;-84
2022/06/12 07:04:12;;;;;;;9.30;7.20;;;;;;;20.23;70.46;98466.44;108175;1287;22387;-86
2022/06/12 07:06:41;;;;;;;16.80;8.50;;;;;;;20.38;70.85;98468.64;108463;1287;22374;-85
2022/06/12 07:09:09;;;;;;;14.90;8.40;;;;;;;20.54;70.38;98465.56;108460;1287;22370;-85
2022/06/12 07:11:38;;;;;;;11.90;7.40;;;;;;;20.65;69.97;98462.89;108435;1286;22304;-88
2022/06/12 07:14:06;;;;;;;13.80;8.40;;;;;;;20.72;68.74;98466.60;108440;1286;22389;-87
2022/06/12 07:16:35;;;;;;;12.30;7.60;;;;;;;20.82;69.26;98462.01;108458;1287;22313;-85
2022/06/12 07:19:03;;;;;;;10.40;6.70;;;;;;;20.96;69.36;98464.14;108454;1287;22373;-86
2022/06/12 07:21:32;;;;;;;11.30;8.40;;;;;;;21.11;69.37;98462.86;108358;1287;22286;-86
2022/06/12 07:24:01;;;;;;;10.70;7.20;;;;;;;21.34;68.70;98461.40;108332;1286;23139;-84
2022/06/12 07:26:35;;;;;;;10.90;6.80;;;;;;;21.50;68.54;98462.55;108303;1286;23000;-83
2022/06/12 07:29:04;;;;;;;12.20;6.20;;;;;;;21.63;68.29;98457.52;108468;1287;22376;-84
2022/06/12 07:31:33;;;;;;;12.20;6.00;;;;;;;21.74;67.84;98454.24;108423;1287;22508;-84
2022/06/12 07:34:01;;;;;;;13.70;6.10;;;;;;;21.86;67.35;98451.36;108454;1287;22379;-83
2022/06/12 07:36:35;;;;;;;8.00;5.50;;;;;;;22.01;67.53;98449.70;108444;1286;23137;-84
2022/06/12 07:39:07;;;;;;;10.80;7.30;;;;;;;22.20;67.34;98448.38;108324;1287;22255;-83
2022/06/12 07:41:48;;;;;;;10.50;6.30;;;;;;;22.26;64.39;98445.75;108441;1286;22346;-83
2022/06/12 07:44:20;;;;;;;11.60;6.70;;;;;;;22.21;64.99;98443.79;108066;1287;22360;-83
2022/06/12 07:46:51;;;;;;;9.70;6.00;;;;;;;22.29;65.34;98445.50;108410;1287;23135;-83
2022/06/12 07:49:20;;;;;;;9.90;5.80;;;;;;;22.37;63.28;98446.04;108308;1287;22445;-84
2022/06/12 07:51:50;;;;;;;9.10;5.50;;;;;;;22.37;63.83;98438.83;108438;1287;23175;-84
2022/06/12 07:54:19;;;;;;;14.90;5.40;;;;;;;22.39;62.58;98439.81;108428;1287;22504;-83
2022/06/12 07:56:48;;;;;;;11.10;5.30;;;;;;;22.43;61.07;98437.68;108452;1286;22297;-82
2022/06/12 07:59:16;;;;;;;9.30;5.10;;;;;;;22.41;59.24;98440.39;108440;1286;22345;-83
2022/06/12 08:01:44;;;;;;;9.70;5.30;;;;;;;22.30;59.98;98436.04;108445;1286;22313;-83
2022/06/12 08:04:13;;;;;;;9.20;5.20;;;;;;;22.33;59.86;98438.91;108369;1286;22457;-83
2022/06/12 08:06:41;;;;;;;7.50;4.70;;;;;;;22.38;58.55;98437.36;108449;1286;22383;-82
2022/06/12 08:09:11;;;;;;;8.70;5.30;;;;;;;22.39;58.97;98439.42;108431;1286;22391;-83
2022/06/12 08:11:41;;;;;;;8.20;5.20;;;;;;;22.38;57.54;98436.33;108456;1286;22366;-83
2022/06/12 08:14:10;;;;;;;8.50;4.80;;;;;;;22.41;56.62;98437.50;108458;1287;22478;-84
2022/06/12 08:16:40;;;;;;;7.90;4.90;;;;;;;22.46;56.47;98435.77;108432;1287;22390;-83
2022/06/12 08:21:58;;;;;;;7.90;4.00;;;;;;;22.82;58.12;98434.21;108467;1287;22431;-84
2022/06/12 08:24:26;;;;;;;7.10;3.80;;;;;;;23.10;57.49;98434.38;108480;1286;23212;-84
2022/06/12 08:26:54;;;;;;;8.50;3.70;;;;;;;23.18;56.91;98434.82;108454;1287;22972;-83
2022/06/12 08:29:24;;;;;;;8.30;3.80;;;;;;;23.22;57.04;98435.42;108485;1286;23503;-83
2022/06/12 08:32:01;;;;;;;7.60;4.10;;;;;;;23.28;56.06;98434.96;108476;1286;22283;-86
2022/06/12 08:34:36;;;;;;;7.50;3.80;;;;;;;23.13;56.02;98432.40;108311;1287;22348;-84
2022/06/12 08:37:11;;;;;;;6.60;3.30;;;;;;;23.21;55.29;98432.11;108449;1286;22522;-84
2022/06/12 08:39:40;;;;;;;8.70;3.80;;;;;;;23.42;55.49;98430.69;108478;1286;22327;-84
2022/06/12 08:42:16;;;;;;;7.00;3.30;;;;;;;23.60;54.66;98431.02;108455;1286;22377;-83
2022/06/12 08:45:13;;;;;;;7.30;3.60;;;;;;;23.59;54.42;98431.58;108467;1287;23148;-82
2022/06/12 08:48:10;;;;;;;3.60;2.90;;;;;;;23.48;54.30;98424.89;108343;1287;22519;-81
2022/06/12 08:50:54;;;;;;;6.70;3.60;;;;;;;23.50;54.84;98426.02;108449;1287;22343;-81
2022/06/12 08:53:34;;;;;;;5.90;3.00;;;;;;;23.47;54.54;98427.39;108442;1287;22564;-81
2022/06/12 08:56:10;;;;;;;6.70;3.10;;;;;;;23.48;53.19;98428.66;108458;1287;22270;-80
2022/06/12 08:58:58;;;;;;;5.10;3.60;;;;;;;23.48;53.69;98426.61;108297;1287;22990;-80
2022/06/12 09:01:29;;;;;;;6.20;2.90;;;;;;;23.58;53.20;98430.99;108450;1287;22445;-80
2022/06/12 09:03:57;;;;;;;6.80;3.70;;;;;;;23.81;51.22;98426.77;108482;1286;22869;-81
2022/06/12 09:06:38;;;;;;;6.40;3.60;;;;;;;23.99;49.81;98418.02;108299;1287;22420;-81
2022/06/12 09:09:28;;;;;;;6.80;3.70;;;;;;;24.17;50.79;98412.48;108483;1287;22303;-81
2022/06/12 09:12:27;;;;;;;7.70;3.00;;;;;;;24.43;50.56;98409.32;108438;1287;22469;-82
2022/06/12 09:15:18;;;;;;;5.90;3.00;;;;;;;24.48;50.29;98407.09;108478;1287;22455;-81
2022/06/12 09:18:31;;;;;;;5.50;3.20;;;;;;;24.60;48.87;98408.92;108450;1287;22358;-81
2022/06/12 09:21:15;;;;;;;8.80;4.00;;;;;;;24.60;47.79;98409.56;107858;1290;22450;-82
2022/06/12 09:23:52;;;;;;;9.30;3.60;;;;;;;24.50;47.84;98403.81;107874;1290;22450;-81
2022/06/12 09:26:29;;;;;;;5.10;3.20;;;;;;;24.32;47.97;98405.27;107879;1291;22364;-81
2022/06/12 09:29:12;;;;;;;6.30;3.20;;;;;;;24.27;48.57;98405.59;107885;1291;22293;-81
2022/06/12 09:31:58;;;;;;;8.80;3.30;;;;;;;24.29;48.72;98398.45;107866;1291;22460;-81
2022/06/12 09:34:29;;;;;;;6.80;3.30;;;;;;;24.30;47.07;98396.90;107870;1291;22334;-81
2022/06/12 09:40:26;;;;;;;5.50;3.00;;;;;;;24.74;45.23;98390.96;107879;1291;22381;-81
2022/06/12 09:43:23;;;;;;;6.30;3.10;;;;;;;24.70;46.48;98386.36;107849;1291;22386;-80
2022/06/12 09:46:02;;;;;;;7.80;3.20;;;;;;;24.60;46.42;98381.86;107664;1291;23103;-81
2022/06/12 09:48:54;;;;;;;4.20;2.20;;;;;;;24.50;46.04;98383.56;107639;1291;22336;-81
2022/06/12 09:51:40;;;;;;;4.70;2.50;;;;;;;24.34;47.52;98378.36;107929;1287;22573;-81
2022/06/12 09:54:26;;;;;;;5.60;2.80;;;;;;;24.31;46.18;98377.00;108485;1287;22296;-80
2022/06/12 09:57:03;;;;;;;6.30;3.30;;;;;;;24.13;45.96;98376.02;108465;1287;22443;-81
2022/06/12 09:59:40;;;;;;;5.00;2.80;;;;;;;24.00;46.73;98374.55;108489;1287;22509;-80
2022/06/12 10:02:20;;;;;;;5.70;3.40;;;;;;;23.93;46.09;98376.52;108492;1286;22364;-81
2022/06/12 10:05:02;;;;;;;5.80;2.70;;;;;;;23.81;46.07;98377.63;108492;1287;22335;-82
2022/06/12 10:07:47;;;;;;;7.60;2.70;;;;;;;23.80;46.94;98378.17;108488;1286;23038;-81
2022/06/12 10:10:39;;;;;;;6.50;2.80;;;;;;;23.86;45.84;98376.45;108490;1286;22305;-81
2022/06/12 10:13:11;;;;;;;4.50;2.60;;;;;;;23.74;46.17;98372.91;108488;1286;22495;-80
2022/06/12 10:15:49;;;;;;;7.80;3.10;;;;;;;23.71;46.25;98372.41;108472;1287;22521;-80
2022/06/12 10:18:24;;;;;;;5.10;3.00;;;;;;;23.73;46.55;98369.99;108502;1287;22323;-80
2022/06/12 10:20:56;;;;;;;8.30;3.60;;;;;;;23.96;46.86;98361.59;108247;1286;321097;-82
2022/06/12 10:23:24;;;;;;;5.50;2.80;;;;;;;24.41;45.79;98359.71;108474;1286;22616;-83
2022/06/12 10:25:56;;;;;;;6.10;2.70;;;;;;;24.72;43.88;98349.53;108489;1287;22350;-83
2022/06/12 10:28:34;;;;;;;7.00;2.50;;;;;;;24.96;44.90;98349.23;108483;1287;22477;-82
2022/06/12 10:31:11;;;;;;;7.30;4.90;;;;;;;25.42;43.98;98344.17;108482;1286;22288;-82
2022/06/12 10:34:03;;;;;;;;;;;;;;;25.63;43.17;98340.80;108505;1287;23078;-81
2022/06/12 10:36:33;;;;;;;6.80;3.30;;;;;;;25.34;42.28;98338.84;108473;1287;22370;-81
2022/06/12 10:39:24;;;;;;;6.30;2.80;;;;;;;25.08;43.35;98342.30;108371;1287;22665;-81
2022/06/12 10:41:58;;;;;;;5.20;2.70;;;;;;;25.07;44.61;98334.25;108344;1287;22366;-81
2022/06/12 10:44:34;;;;;;;3.40;2.40;;;;;;;25.26;45.05;98338.64;108360;1287;22271;-82
2022/06/12 10:47:23;;;;;;;4.10;2.30;;;;;;;25.38;44.45;98333.28;108452;1287;22271;-81
2022/06/12 10:50:03;;;;;;;5.90;2.30;;;;;;;25.44;44.53;98335.35;108446;1287;22259;-82
2022/06/12 10:52:30;;;;;;;4.50;2.40;;;;;;;25.68;44.94;98330.31;108469;1287;23088;-82
2022/06/12 10:54:59;;;;;;;5.30;2.00;;;;;;;26.00;44.19;98329.27;108471;1286;22441;-81
2022/06/12 10:57:40;;;;;;;4.00;2.00;;;;;;;26.33;43.71;98325.52;108474;1287;22286;-81
2022/06/12 11:00:13;;;;;;;4.00;2.20;;;;;;;26.54;43.41;98325.48;108461;1287;22269;-82
2022/06/12 11:02:53;;;;;;;3.70;1.90;;;;;;;26.64;43.48;98325.40;108513;1287;22946;-81
2022/06/12 11:05:39;;;;;;;4.30;2.00;;;;;;;26.87;42.10;98328.39;108514;1286;22848;-81
2022/06/12 11:08:35;;;;;;;3.70;1.90;;;;;;;26.94;41.69;98321.58;108468;1287;22281;-81
2022/06/12 11:11:14;;;;;;;4.70;1.90;;;;;;;27.20;42.89;98317.60;108490;1286;22395;-80
2022/06/12 11:13:41;;;;;;;5.00;1.80;;;;;;;27.63;41.78;98324.33;108377;1286;23015;-81
2022/06/12 11:16:25;;;;;;;3.70;2.00;;;;;;;27.90;41.49;98321.84;108483;1287;23451;-86
2022/06/12 11:19:23;;;;;;;2.90;1.60;;;;;;;28.16;41.79;98321.69;108504;1286;23107;-89
2022/06/12 11:21:53;;;;;;;4.00;2.00;;;;;;;28.10;41.53;98321.34;108520;1287;22260;-89
2022/06/12 11:24:28;;;;;;;4.50;1.80;;;;;;;27.88;41.41;98317.51;108476;1287;22292;-86
2022/06/12 11:27:07;;;;;;;4.40;1.80;;;;;;;27.64;41.26;98317.14;108518;1287;22298;-85
2022/06/12 11:29:56;;;;;;;3.90;2.20;;;;;;;27.58;41.40;98316.45;108531;1287;22404;-84
2022/06/12 11:32:57;;;;;;;4.90;2.00;;;;;;;27.64;41.16;98314.91;108512;1287;22292;-86
2022/06/12 11:35:50;;;;;;;5.20;1.70;;;;;;;27.63;40.95;98312.54;108287;1287;22451;-85
2022/06/12 11:38:30;;;;;;;3.20;1.70;;;;;;;27.39;40.35;98311.21;108492;1286;22276;-83
2022/06/12 11:41:36;;;;;;;3.90;1.90;;;;;;;27.15;41.27;98306.30;108477;1287;22482;-85
2022/06/12 11:44:10;;;;;;;6.90;2.30;;;;;;;27.00;41.50;98303.88;107937;1286;23100;-86
2022/06/12 11:46:47;;;;;;;3.30;1.80;;;;;;;26.98;41.31;98299.13;108499;1287;22379;-85
2022/06/12 11:49:46;;;;;;;4.30;2.40;;;;;;;27.27;41.73;98291.34;108489;1287;22492;-84
2022/06/12 11:52:28;;;;;;;2.90;1.90;;;;;;;27.69;41.18;98291.30;108336;1286;22303;-87
2022/06/12 11:54:59;;;;;;;3.50;1.90;;;;;;;28.03;40.50;98286.40;108497;1286;23006;-88
2022/06/12 11:58:02;;;;;;;4.40;2.10;;;;;;;28.36;40.24;98284.51;108486;1286;22382;-86
2022/06/12 12:00:45;;;;;;;4.20;2.10;;;;;;;28.84;40.09;98280.21;107560;1287;22647;-85
2022/06/12 12:03:42;;;;;;;5.50;1.80;;;;;;;29.12;39.51;98279.70;108511;1287;22493;-84
2022/06/12 12:06:10;;;;;;;5.50;1.70;;;;;;;29.50;39.80;98274.56;108514;1287;22319;-84
2022/06/12 12:08:48;;;;;;;3.40;1.80;;;;;;;29.83;39.28;98270.02;108531;1286;22571;-88
2022/06/12 12:11:29;;;;;;;4.00;1.70;;;;;;;30.12;39.20;98268.16;108513;1286;23024;-88
2022/06/12 12:14:41;;;;;;;4.10;1.40;;;;;;;30.33;38.70;98263.48;108295;1287;23287;-88
2022/06/12 12:17:34;;;;;;;3.80;1.80;;;;;;;30.37;36.99;98260.49;108521;1286;22389;-89
2022/06/12 12:20:12;;;;;;;4.80;1.90;;;;;;;30.27;36.66;98259.53;108531;1287;22368;-88
2022/06/12 12:22:46;;;;;;;4.10;1.80;;;;;;;30.10;35.36;98254.15;108530;1287;22253;-89
2022/06/12 12:25:14;;;;;;;5.90;2.20;;;;;;;29.85;34.88;98250.14;108391;1286;23123;-89